100LL.CA
Aviation Fuel Pricing for Canadians
Please upgrade your browser - Tested with IE9, FireFox, Chrome, Safari

Fuel Airports Other Help
Prices Economy Info List METAR/TAF Kneeboard Help

Reference Airport: CASTLEGAR/WEST KOOTENAY REGIONAL, BC
N 49 17 46  W 117 37 57
Provinces to show:

CYCG CASTLEGAR/WEST KOOTENAY REGIONAL, BC
WEATHER
METARCYCG 131800Z 01004KT 310V040 15SM FEW050 FEW220 12/04 A2993 RMK CU1CI1 CI TR SLP145
TAFTAF CYCG 131840Z 1319/1404 35005KT P6SM FEW050 FEW220 FM132100 20008KT P6SM SCT080 RMK NXT FCST BY 140100Z
OTHER SITES

FlightAware

FltPlan

Google Maps

SkyVector
FUEL
FBO 100LL
member
100LL
public
JETA MOGAS
Brilliant Aviation (2023-07-24)2.5622.400
Canada Flight Supplement - CYCG
(opens in new tab/window)


Please Send Updates!

Desktop Version ]  [ Mobile Version ]  [ Disclaimer ]